Lionville, Pennsylvania
Current Conditions -  °F | °C
As of 1:35 AM on Saturday 20 Dec 2014 (Local Time) from KMQS Reporting Station
Overcast Overcast  
Wind Chill: 26°   Ceiling: 3000
Heat Index: 32°   Visibility: 10mi
Dew Point: 25°   Wind: 7mph
Humidity: 75%   Direction: 310°NW
Pressure: 30.18"   Gusts: NA
Location:  40.05°N, 75.66°W
Report Text: KMQS 200635Z AUTO 31006KT 10SM OVC030 00/M04 A3018 RMK AO2
Loading
Personal Weather Stations






























Interactive Weather Map New forecast layout! Learn more

10-Day Weather Forecast

Advertisements
Track Severe Weather on mobile